createdAt,value
2017-07-12T21:31:49.971Z,23.33
2017-07-12T21:34:16.293Z,23.31
2017-07-12T21:36:42.595Z,23.32
2017-07-12T21:39:09.298Z,23.34
2017-07-12T21:41:35.834Z,23.34
2017-07-12T21:44:02.130Z,23.35
2017-07-12T21:46:28.413Z,23.37
2017-07-12T21:48:54.683Z,23.37
2017-07-12T21:51:20.960Z,23.38
2017-07-12T21:54:05.478Z,23.38
2017-07-12T21:56:49.960Z,23.35
2017-07-12T21:59:34.358Z,23.32
2017-07-12T22:02:18.955Z,23.29
2017-07-12T22:05:03.569Z,23.01
2017-07-12T22:07:47.985Z,22.83
2017-07-12T22:10:32.501Z,22.78
2017-07-12T22:13:17.018Z,22.77
2017-07-12T22:16:01.434Z,22.78
2017-07-12T22:18:46.164Z,22.79
2017-07-12T22:21:30.785Z,22.80
2017-07-12T22:24:16.743Z,22.80
2017-07-12T22:27:01.640Z,22.81
2017-07-12T22:29:46.182Z,22.82
2017-07-12T22:32:30.836Z,22.82
2017-07-12T22:35:18.313Z,22.82
2017-07-12T22:37:51.682Z,22.82
2017-07-12T22:40:23.979Z,22.86
2017-07-12T22:42:56.732Z,22.87
2017-07-12T22:45:25.735Z,22.89
2017-07-12T22:47:56.474Z,22.91
2017-07-12T22:50:22.948Z,22.93
2017-07-12T22:52:49.237Z,22.93
2017-07-12T22:55:15.517Z,22.95
2017-07-12T22:57:41.806Z,22.96
2017-07-12T23:00:09.105Z,22.98
2017-07-12T23:02:35.388Z,22.98
2017-07-12T23:05:01.673Z,22.99
2017-07-12T23:07:28.021Z,23.00
2017-07-12T23:09:54.768Z,23.00
2017-07-12T23:12:21.180Z,23.00
2017-07-12T23:14:47.486Z,23.00
2017-07-12T23:17:13.763Z,23.00
2017-07-12T23:19:40.056Z,23.00
2017-07-12T23:22:06.527Z,23.01
2017-07-12T23:24:32.829Z,23.01
2017-07-12T23:26:59.107Z,23.01
2017-07-12T23:29:25.395Z,23.01
2017-07-12T23:31:53.712Z,23.02
2017-07-12T23:34:20.023Z,23.01
2017-07-12T23:36:46.354Z,23.01
2017-07-12T23:39:12.705Z,23.01
2017-07-12T23:41:40.038Z,23.00
2017-07-12T23:44:06.782Z,23.00
2017-07-12T23:46:33.092Z,22.99
2017-07-12T23:49:00.407Z,23.00
2017-07-12T23:51:26.732Z,23.04
2017-07-12T23:53:53.034Z,23.08
2017-07-12T23:56:19.341Z,23.10
2017-07-12T23:58:46.096Z,23.12
